createdAt,value
2017-07-30T00:00:31.293Z,0
2017-07-30T00:01:31.260Z,0
2017-07-30T00:02:31.312Z,0
2017-07-30T00:03:31.569Z,0
2017-07-30T00:04:31.226Z,0
2017-07-30T00:05:31.619Z,0
2017-07-30T00:06:31.202Z,0
2017-07-30T00:07:31.851Z,0
2017-07-30T00:08:31.469Z,0
2017-07-30T00:09:31.450Z,0
2017-07-30T00:10:31.751Z,0
2017-07-30T00:11:31.473Z,0
2017-07-30T00:12:31.469Z,0
2017-07-30T00:13:31.168Z,0
2017-07-30T00:14:31.389Z,0
2017-07-30T00:15:31.401Z,0
2017-07-30T00:16:30.767Z,0
2017-07-30T00:17:31.366Z,0
2017-07-30T00:18:31.385Z,0
2017-07-30T00:19:31.132Z,0
2017-07-30T00:20:31.330Z,0
2017-07-30T00:21:31.312Z,0
2017-07-30T00:22:31.310Z,0
2017-07-30T00:23:31.282Z,0
2017-07-30T00:24:31.584Z,0
2017-07-30T00:25:31.268Z,0
2017-07-30T00:26:31.361Z,0
2017-07-30T00:27:31.549Z,0
2017-07-30T00:28:31.228Z,0
2017-07-30T00:29:31.201Z,0
2017-07-30T00:30:31.206Z,0
2017-07-30T00:31:31.180Z,0
2017-07-30T00:32:31.460Z,0
2017-07-30T00:33:31.452Z,0
2017-07-30T00:34:31.243Z,0
2017-07-30T00:35:31.448Z,0
2017-07-30T00:36:31.419Z,0
2017-07-30T00:37:31.110Z,0
2017-07-30T00:38:30.791Z,0
2017-07-30T00:39:31.381Z,0
2017-07-30T00:40:31.367Z,0
2017-07-30T00:41:31.080Z,0
2017-07-30T00:42:31.353Z,0
2017-07-30T00:43:30.721Z,0
2017-07-30T00:44:31.338Z,0
2017-07-30T00:45:31.310Z,0
2017-07-30T00:46:30.740Z,0
2017-07-30T00:47:30.707Z,0
2017-07-30T00:48:31.290Z,0
2017-07-30T00:49:31.236Z,0
2017-07-30T00:50:30.950Z,0
2017-07-30T00:51:31.383Z,0
2017-07-30T00:52:31.304Z,0
2017-07-30T00:53:31.283Z,0
2017-07-30T00:54:31.203Z,0
2017-07-30T00:55:30.970Z,0
2017-07-30T00:56:30.921Z,0
2017-07-30T00:57:31.173Z,0
2017-07-30T00:58:31.348Z,0
2017-07-30T00:59:30.545Z,0
2017-07-30T01:00:30.809Z,0
2017-07-30T01:01:31.181Z,0
2017-07-30T01:02:30.853Z,0
2017-07-30T01:03:30.769Z,0
2017-07-30T01:04:31.154Z,0
2017-07-30T01:05:30.451Z,0
2017-07-30T01:06:30.730Z,0
2017-07-30T01:07:30.491Z,0
2017-07-30T01:08:30.761Z,0
2017-07-30T01:09:30.739Z,0
2017-07-30T01:10:30.382Z,0
2017-07-30T01:11:30.378Z,0
2017-07-30T01:12:31.139Z,0
2017-07-30T01:13:30.654Z,0
2017-07-30T01:14:30.614Z,0
2017-07-30T01:15:30.311Z,0
2017-07-30T01:16:30.603Z,0
2017-07-30T01:17:30.741Z,0
2017-07-30T01:18:30.357Z,0
2017-07-30T01:19:30.878Z,0
2017-07-30T01:20:30.922Z,0
2017-07-30T01:21:30.244Z,0
2017-07-30T01:22:30.611Z,0
2017-07-30T01:23:30.850Z,0
2017-07-30T01:24:30.987Z,0
2017-07-30T01:25:30.541Z,0
2017-07-30T01:26:30.809Z,0
2017-07-30T01:27:30.152Z,0
2017-07-30T01:28:30.767Z,0
2017-07-30T01:29:30.138Z,0
2017-07-30T01:30:30.740Z,0
2017-07-30T01:31:30.718Z,0
2017-07-30T01:32:30.709Z,0
2017-07-30T01:33:30.080Z,0
2017-07-30T01:34:30.196Z,0
2017-07-30T01:35:30.386Z,0
2017-07-30T01:36:30.680Z,0
2017-07-30T01:37:30.658Z,0
2017-07-30T01:38:30.648Z,0
2017-07-30T01:39:29.717Z,0
2017-07-30T01:40:30.045Z,0
2017-07-30T01:41:29.973Z,0
2017-07-30T01:42:30.330Z,0
2017-07-30T01:43:30.270Z,0
2017-07-30T01:44:29.941Z,0
2017-07-30T01:45:30.242Z,0
2017-07-30T01:46:30.559Z,0
2017-07-30T01:47:29.601Z,0
2017-07-30T01:48:29.902Z,0
2017-07-30T01:49:30.225Z,0
2017-07-30T01:50:30.160Z,0
2017-07-30T01:51:29.545Z,0
2017-07-30T01:52:30.451Z,0
2017-07-30T01:53:29.831Z,0
2017-07-30T01:54:30.122Z,0
2017-07-30T01:55:29.803Z,0
2017-07-30T01:56:30.098Z,0
2017-07-30T01:57:30.066Z,0
2017-07-30T01:58:29.770Z,0
2017-07-30T01:59:30.060Z,0
2017-07-30T02:00:30.069Z,0
2017-07-30T02:01:30.072Z,0
2017-07-30T02:02:30.029Z,0
2017-07-30T02:03:30.015Z,0
2017-07-30T02:04:30.093Z,0
2017-07-30T02:05:30.358Z,0
2017-07-30T02:06:29.965Z,0
2017-07-30T02:07:30.271Z,0
2017-07-30T02:08:30.254Z,0
2017-07-30T02:09:29.318Z,0
2017-07-30T02:10:29.690Z,0
2017-07-30T02:11:30.252Z,0
2017-07-30T02:12:29.272Z,0
2017-07-30T02:13:29.905Z,0
2017-07-30T02:14:30.270Z,0
2017-07-30T02:15:29.553Z,0
2017-07-30T02:16:30.180Z,0
2017-07-30T02:17:29.553Z,0
2017-07-30T02:18:29.510Z,0
2017-07-30T02:19:30.115Z,0
2017-07-30T02:20:29.553Z,0
2017-07-30T02:21:29.795Z,0
2017-07-30T02:22:30.179Z,0
2017-07-30T02:23:29.150Z,0
2017-07-30T02:24:29.525Z,0
2017-07-30T02:25:30.029Z,0
2017-07-30T02:26:30.123Z,0
2017-07-30T02:27:29.731Z,0
2017-07-30T02:28:29.686Z,0
2017-07-30T02:29:29.989Z,0
2017-07-30T02:30:29.701Z,0
2017-07-30T02:31:29.039Z,0
2017-07-30T02:32:29.040Z,0
2017-07-30T02:33:29.976Z,0
2017-07-30T02:34:29.001Z,0
2017-07-30T02:35:29.678Z,0
2017-07-30T02:36:29.583Z,0
2017-07-30T02:37:29.650Z,0
2017-07-30T02:38:29.239Z,0
2017-07-30T02:39:29.856Z,0
2017-07-30T02:40:29.538Z,0
2017-07-30T02:41:28.929Z,0
2017-07-30T02:42:28.971Z,0
2017-07-30T02:43:29.183Z,0
2017-07-30T02:44:29.776Z,0
2017-07-30T02:45:29.176Z,0
2017-07-30T02:46:29.164Z,0
2017-07-30T02:47:28.825Z,0
2017-07-30T02:48:29.429Z,0
2017-07-30T02:49:29.420Z,0
2017-07-30T02:50:29.390Z,0
2017-07-30T02:51:29.693Z,0
2017-07-30T02:52:29.390Z,0
2017-07-30T02:53:29.661Z,0
2017-07-30T02:54:29.050Z,0
2017-07-30T02:55:29.021Z,0
2017-07-30T02:56:28.710Z,0
2017-07-30T02:57:29.357Z,0
2017-07-30T02:58:29.410Z,0
2017-07-30T02:59:29.001Z,0
2017-07-30T03:00:29.359Z,0
2017-07-30T03:01:28.943Z,0
2017-07-30T03:02:28.711Z,0
2017-07-30T03:03:29.295Z,0
2017-07-30T03:04:29.216Z,0
2017-07-30T03:05:28.593Z,0
2017-07-30T03:06:28.975Z,0
2017-07-30T03:07:28.864Z,0
2017-07-30T03:08:28.973Z,0
2017-07-30T03:09:29.199Z,0
2017-07-30T03:10:28.871Z,0
2017-07-30T03:11:29.128Z,0
2017-07-30T03:12:28.544Z,0
2017-07-30T03:13:29.106Z,0
2017-07-30T03:14:28.789Z,0
2017-07-30T03:15:29.109Z,0
2017-07-30T03:16:28.762Z,0
2017-07-30T03:17:29.091Z,0
2017-07-30T03:18:28.853Z,0
2017-07-30T03:19:29.359Z,0
2017-07-30T03:20:29.062Z,0
2017-07-30T03:21:29.004Z,0
2017-07-30T03:22:28.997Z,0
2017-07-30T03:23:29.069Z,0
2017-07-30T03:24:29.011Z,0
2017-07-30T03:25:29.358Z,0
2017-07-30T03:26:28.922Z,0
2017-07-30T03:27:28.923Z,0
2017-07-30T03:28:28.587Z,0
2017-07-30T03:29:28.892Z,0
2017-07-30T03:30:28.889Z,0
2017-07-30T03:31:28.937Z,0
2017-07-30T03:32:28.856Z,0
2017-07-30T03:33:29.149Z,0
2017-07-30T03:34:29.167Z,0
2017-07-30T03:35:28.569Z,0
2017-07-30T03:36:28.801Z,0
2017-07-30T03:37:29.081Z,0
2017-07-30T03:38:29.147Z,0
2017-07-30T03:39:28.762Z,0
2017-07-30T03:40:29.092Z,0
2017-07-30T03:41:28.780Z,0
2017-07-30T03:42:28.723Z,0
2017-07-30T03:43:28.701Z,0
2017-07-30T03:44:28.754Z,0
2017-07-30T03:45:28.684Z,0
2017-07-30T03:46:28.981Z,0
2017-07-30T03:47:29.016Z,0
2017-07-30T03:48:28.972Z,0
2017-07-30T03:49:28.946Z,0
2017-07-30T03:50:28.732Z,0
2017-07-30T03:51:29.013Z,0
2017-07-30T03:52:28.289Z,0
2017-07-30T03:53:28.923Z,0
2017-07-30T03:54:28.232Z,0
2017-07-30T03:55:28.242Z,0
2017-07-30T03:56:28.223Z,0
2017-07-30T03:57:28.848Z,0
2017-07-30T03:58:28.512Z,0
2017-07-30T03:59:28.793Z,0
2017-07-30T04:00:28.783Z,0
2017-07-30T04:01:28.812Z,0
2017-07-30T04:02:28.193Z,0
2017-07-30T04:03:28.741Z,0
2017-07-30T04:04:28.420Z,0
2017-07-30T04:05:28.732Z,0
2017-07-30T04:06:28.074Z,0
2017-07-30T04:07:28.061Z,0
2017-07-30T04:08:28.671Z,0
2017-07-30T04:09:28.382Z,0
2017-07-30T04:10:28.036Z,0
2017-07-30T04:11:28.322Z,0
2017-07-30T04:12:28.327Z,0
2017-07-30T04:13:28.613Z,0
2017-07-30T04:14:28.074Z,0
2017-07-30T04:15:28.263Z,5
2017-07-30T04:16:27.945Z,5
2017-07-30T04:17:28.242Z,5
2017-07-30T04:18:28.552Z,5
2017-07-30T04:19:27.912Z,5
2017-07-30T04:20:28.265Z,5
2017-07-30T04:21:27.924Z,5
2017-07-30T04:22:28.487Z,5
2017-07-30T04:23:28.192Z,0
2017-07-30T04:24:27.872Z,0
2017-07-30T04:25:28.155Z,0
2017-07-30T04:26:28.428Z,0
2017-07-30T04:27:27.780Z,0
2017-07-30T04:28:28.402Z,0
2017-07-30T04:29:27.789Z,0
2017-07-30T04:30:27.761Z,0
2017-07-30T04:31:27.750Z,0
2017-07-30T04:32:27.753Z,0
2017-07-30T04:33:28.031Z,0
2017-07-30T04:34:28.331Z,0
2017-07-30T04:35:28.004Z,0
2017-07-30T04:36:28.300Z,0
2017-07-30T04:37:28.021Z,0
2017-07-30T04:38:27.984Z,0
2017-07-30T04:39:27.661Z,5
2017-07-30T04:40:27.352Z,5
2017-07-30T04:41:27.632Z,5
2017-07-30T04:42:27.666Z,5
2017-07-30T04:43:27.279Z,5
2017-07-30T04:44:27.291Z,5
2017-07-30T04:45:28.184Z,5
2017-07-30T04:46:27.961Z,5
2017-07-30T04:47:27.315Z,5
2017-07-30T04:48:27.543Z,5
2017-07-30T04:49:27.859Z,5
2017-07-30T04:50:27.493Z,5
2017-07-30T04:51:27.854Z,5
2017-07-30T04:52:27.857Z,5
2017-07-30T04:53:27.792Z,5
2017-07-30T04:54:28.069Z,5
2017-07-30T04:55:27.790Z,10
2017-07-30T04:56:27.732Z,10
2017-07-30T04:57:27.418Z,10
2017-07-30T04:58:27.720Z,15
2017-07-30T04:59:27.709Z,15
2017-07-30T05:00:27.466Z,15
2017-07-30T05:01:27.974Z,20
2017-07-30T05:02:27.701Z,15
2017-07-30T05:03:27.671Z,15
2017-07-30T05:04:27.731Z,15
2017-07-30T05:05:27.610Z,15
2017-07-30T05:06:27.602Z,15
2017-07-30T05:07:26.971Z,15
2017-07-30T05:08:27.364Z,15
2017-07-30T05:09:27.857Z,20
2017-07-30T05:10:27.552Z,20
2017-07-30T05:11:26.929Z,20
2017-07-30T05:12:27.823Z,20
2017-07-30T05:13:27.192Z,20
2017-07-30T05:14:27.184Z,25
2017-07-30T05:15:26.877Z,25
2017-07-30T05:16:27.802Z,30
2017-07-30T05:17:27.142Z,35
2017-07-30T05:18:27.819Z,35
2017-07-30T05:19:27.435Z,40
2017-07-30T05:20:27.429Z,40
2017-07-30T05:21:27.390Z,40
2017-07-30T05:22:27.441Z,35
2017-07-30T05:23:27.731Z,35
2017-07-30T05:24:27.382Z,35
2017-07-30T05:25:27.374Z,35
2017-07-30T05:26:27.325Z,35
2017-07-30T05:27:27.390Z,35
2017-07-30T05:28:27.664Z,35
2017-07-30T05:29:26.781Z,40
2017-07-30T05:30:27.586Z,40
2017-07-30T05:31:27.572Z,40
2017-07-30T05:32:26.944Z,45
2017-07-30T05:33:27.552Z,45
2017-07-30T05:34:27.225Z,45
2017-07-30T05:35:26.931Z,40
2017-07-30T05:36:26.967Z,40
2017-07-30T05:37:27.191Z,40
2017-07-30T05:38:26.563Z,40
2017-07-30T05:39:27.241Z,40
2017-07-30T05:40:27.141Z,40
2017-07-30T05:41:27.141Z,45
2017-07-30T05:42:26.513Z,45
2017-07-30T05:43:26.913Z,45
2017-07-30T05:44:26.791Z,45
2017-07-30T05:45:26.812Z,45
2017-07-30T05:46:26.522Z,45
2017-07-30T05:47:27.051Z,45
2017-07-30T05:48:27.355Z,45
2017-07-30T05:49:26.131Z,50
2017-07-30T05:50:27.033Z,50
2017-07-30T05:51:26.721Z,50
2017-07-30T05:52:27.003Z,50
2017-07-30T05:53:26.979Z,45
2017-07-30T05:54:27.280Z,45
2017-07-30T05:55:26.671Z,45
2017-07-30T05:56:26.952Z,40
2017-07-30T05:57:26.612Z,45
2017-07-30T05:58:26.612Z,45
2017-07-30T05:59:26.622Z,40
2017-07-30T06:00:27.212Z,40
2017-07-30T06:01:26.582Z,45
2017-07-30T06:02:26.871Z,55
2017-07-30T06:03:26.864Z,50
2017-07-30T06:04:26.316Z,60
2017-07-30T06:05:26.868Z,65
2017-07-30T06:06:26.540Z,60
2017-07-30T06:07:27.139Z,60
2017-07-30T06:08:26.781Z,65
2017-07-30T06:09:26.482Z,85
2017-07-30T06:10:26.473Z,105
2017-07-30T06:11:26.482Z,110
2017-07-30T06:12:26.754Z,105
2017-07-30T06:13:26.442Z,105
2017-07-30T06:14:26.722Z,110
2017-07-30T06:15:26.416Z,105
2017-07-30T06:16:26.751Z,95
2017-07-30T06:17:26.079Z,90
2017-07-30T06:18:26.374Z,85
2017-07-30T06:19:26.661Z,85
2017-07-30T06:20:26.341Z,100
2017-07-30T06:21:26.631Z,115
2017-07-30T06:22:26.643Z,140
2017-07-30T06:23:26.621Z,150
2017-07-30T06:24:26.308Z,130
2017-07-30T06:25:26.290Z,115
2017-07-30T06:26:26.574Z,115
2017-07-30T06:27:26.562Z,125
2017-07-30T06:28:26.260Z,150
2017-07-30T06:29:26.246Z,155
2017-07-30T06:30:26.522Z,155
2017-07-30T06:31:26.530Z,150
2017-07-30T06:32:26.521Z,130
2017-07-30T06:33:26.489Z,140
2017-07-30T06:34:26.543Z,160
2017-07-30T06:35:26.188Z,165
2017-07-30T06:36:26.479Z,165
2017-07-30T06:37:26.453Z,155
2017-07-30T06:38:26.442Z,145
2017-07-30T06:39:26.444Z,140
2017-07-30T06:40:26.747Z,140
2017-07-30T06:41:26.729Z,130
2017-07-30T06:42:26.403Z,130
2017-07-30T06:43:26.422Z,145
2017-07-30T06:44:26.372Z,155
2017-07-30T06:45:26.686Z,155
2017-07-30T06:46:26.372Z,155
2017-07-30T06:47:26.040Z,170
2017-07-30T06:48:26.643Z,170
2017-07-30T06:49:26.643Z,175
2017-07-30T06:50:26.554Z,165
2017-07-30T06:51:26.303Z,155
2017-07-30T06:52:26.591Z,155
2017-07-30T06:53:26.591Z,150
2017-07-30T06:54:26.571Z,150
2017-07-30T06:55:26.553Z,150
2017-07-30T06:56:26.562Z,145
2017-07-30T06:57:26.544Z,145
2017-07-30T06:58:26.534Z,150
2017-07-30T06:59:26.522Z,155
2017-07-30T07:00:26.501Z,150
2017-07-30T07:01:26.222Z,150
2017-07-30T07:02:26.191Z,155
2017-07-30T07:03:26.482Z,160
2017-07-30T07:04:26.170Z,145
2017-07-30T07:05:26.475Z,160
2017-07-30T07:06:26.252Z,155
2017-07-30T07:07:26.442Z,170
2017-07-30T07:08:26.582Z,160
2017-07-30T07:09:26.431Z,145
2017-07-30T07:10:26.417Z,145
2017-07-30T07:11:26.412Z,145
2017-07-30T07:12:26.400Z,150
2017-07-30T07:13:26.428Z,150
2017-07-30T07:14:26.417Z,155
2017-07-30T07:15:26.039Z,160
2017-07-30T07:16:26.461Z,170
2017-07-30T07:17:26.393Z,175
2017-07-30T07:18:26.352Z,175
2017-07-30T07:19:26.062Z,180
2017-07-30T07:20:26.354Z,175
2017-07-30T07:21:26.310Z,170
2017-07-30T07:22:25.951Z,165
2017-07-30T07:23:25.657Z,170
2017-07-30T07:24:25.950Z,175
2017-07-30T07:25:25.995Z,185
2017-07-30T07:26:25.651Z,165
2017-07-30T07:27:25.921Z,170
2017-07-30T07:28:25.921Z,170
2017-07-30T07:29:25.910Z,210
2017-07-30T07:30:25.884Z,185
2017-07-30T07:31:26.177Z,175
2017-07-30T07:32:25.575Z,180
2017-07-30T07:33:25.880Z,180
2017-07-30T07:34:25.663Z,195
2017-07-30T07:35:25.685Z,195
2017-07-30T07:36:26.150Z,190
2017-07-30T07:37:26.121Z,185
2017-07-30T07:38:26.121Z,195
2017-07-30T07:39:26.090Z,190
2017-07-30T07:40:25.792Z,195
2017-07-30T07:41:26.102Z,230
2017-07-30T07:42:25.226Z,230
2017-07-30T07:43:25.771Z,255
2017-07-30T07:44:26.058Z,260
2017-07-30T07:45:26.039Z,275
2017-07-30T07:46:25.418Z,225
2017-07-30T07:47:26.028Z,225
2017-07-30T07:48:26.009Z,220
2017-07-30T07:49:25.983Z,180
2017-07-30T07:50:25.991Z,205
2017-07-30T07:51:25.427Z,200
2017-07-30T07:52:25.977Z,165
2017-07-30T07:53:25.967Z,170
2017-07-30T07:54:25.330Z,155
2017-07-30T07:55:25.956Z,145
2017-07-30T07:56:26.048Z,175
2017-07-30T07:57:25.927Z,145
2017-07-30T07:58:25.304Z,135
2017-07-30T07:59:25.303Z,150
2017-07-30T08:00:25.961Z,130
2017-07-30T08:01:25.892Z,135
2017-07-30T08:02:25.261Z,145
2017-07-30T08:03:25.259Z,155
2017-07-30T08:04:25.243Z,120
2017-07-30T08:05:25.246Z,130
2017-07-30T08:06:25.509Z,175
2017-07-30T08:07:25.523Z,220
2017-07-30T08:08:25.561Z,240
2017-07-30T08:09:25.486Z,270
2017-07-30T08:10:25.891Z,265
2017-07-30T08:11:25.472Z,235
2017-07-30T08:12:25.827Z,225
2017-07-30T08:13:25.451Z,230
2017-07-30T08:14:25.491Z,255
2017-07-30T08:15:25.745Z,285
2017-07-30T08:16:24.958Z,335
2017-07-30T08:17:24.901Z,340
2017-07-30T08:18:25.100Z,325
2017-07-30T08:19:25.701Z,235
2017-07-30T08:20:25.751Z,205
2017-07-30T08:21:25.683Z,230
2017-07-30T08:22:25.412Z,155
2017-07-30T08:23:24.732Z,190
2017-07-30T08:24:25.040Z,205
2017-07-30T08:25:25.652Z,145
2017-07-30T08:26:25.040Z,150
2017-07-30T08:27:25.622Z,215
2017-07-30T08:28:25.621Z,150
2017-07-30T08:29:25.281Z,105
2017-07-30T08:30:25.591Z,145
2017-07-30T08:31:25.269Z,180
2017-07-30T08:32:25.560Z,170
2017-07-30T08:33:25.562Z,220
2017-07-30T08:34:25.028Z,310
2017-07-30T08:35:25.560Z,160
2017-07-30T08:36:25.531Z,140
2017-07-30T08:37:25.240Z,145
2017-07-30T08:38:25.526Z,135
2017-07-30T08:39:25.525Z,155
2017-07-30T08:40:25.362Z,195
2017-07-30T08:41:25.294Z,145
2017-07-30T08:42:25.468Z,235
2017-07-30T08:43:25.479Z,165
2017-07-30T08:44:25.454Z,150
2017-07-30T08:45:25.153Z,165
2017-07-30T08:46:25.162Z,165
2017-07-30T08:47:24.815Z,215
2017-07-30T08:48:24.805Z,215
2017-07-30T08:49:25.410Z,180
2017-07-30T08:50:25.541Z,220
2017-07-30T08:51:25.084Z,340
2017-07-30T08:52:24.777Z,320
2017-07-30T08:53:24.776Z,220
2017-07-30T08:54:24.760Z,270
2017-07-30T08:55:25.375Z,285
2017-07-30T08:56:25.091Z,280
2017-07-30T08:57:25.041Z,1125
2017-07-30T08:58:25.029Z,320
2017-07-30T08:59:24.709Z,250
2017-07-30T09:00:24.981Z,245
2017-07-30T09:01:25.307Z,380
2017-07-30T09:02:24.973Z,795
2017-07-30T09:03:24.652Z,705
2017-07-30T09:04:24.962Z,215
2017-07-30T09:05:24.958Z,180
2017-07-30T09:06:24.345Z,130
2017-07-30T09:07:24.723Z,145
2017-07-30T09:08:25.256Z,235
2017-07-30T09:09:24.912Z,250
2017-07-30T09:10:25.219Z,190
2017-07-30T09:11:25.194Z,250
2017-07-30T09:12:24.893Z,195
2017-07-30T09:13:24.872Z,185
2017-07-30T09:14:24.890Z,255
2017-07-30T09:15:24.853Z,170
2017-07-30T09:16:25.180Z,170
2017-07-30T09:17:24.823Z,185
2017-07-30T09:18:24.826Z,170
2017-07-30T09:19:24.226Z,180
2017-07-30T09:20:25.116Z,180
2017-07-30T09:21:24.833Z,150
2017-07-30T09:22:24.807Z,120
2017-07-30T09:23:24.790Z,110
2017-07-30T09:24:24.791Z,100
2017-07-30T09:25:24.792Z,95
2017-07-30T09:26:25.090Z,95
2017-07-30T09:27:24.766Z,115
2017-07-30T09:28:25.029Z,125
2017-07-30T09:29:24.423Z,125
2017-07-30T09:30:24.449Z,190
2017-07-30T09:31:25.031Z,125
2017-07-30T09:32:24.108Z,115
2017-07-30T09:33:24.384Z,115
2017-07-30T09:34:24.393Z,140
2017-07-30T09:35:24.984Z,135
2017-07-30T09:36:24.754Z,160
2017-07-30T09:37:24.354Z,195
2017-07-30T09:38:24.792Z,295
2017-07-30T09:39:24.402Z,1165
2017-07-30T09:40:24.671Z,1165
2017-07-30T09:41:24.620Z,340
2017-07-30T09:42:24.311Z,370
2017-07-30T09:43:24.601Z,880
2017-07-30T09:44:24.624Z,640
2017-07-30T09:45:24.344Z,855
2017-07-30T09:46:24.621Z,1225
2017-07-30T09:47:24.961Z,1105
2017-07-30T09:48:24.240Z,915
2017-07-30T09:49:24.311Z,1040
2017-07-30T09:50:24.248Z,815
2017-07-30T09:51:24.238Z,600
2017-07-30T09:52:23.629Z,980
2017-07-30T09:53:24.241Z,940
2017-07-30T09:54:24.212Z,1125
2017-07-30T09:55:24.208Z,1145
2017-07-30T09:56:24.221Z,1155
2017-07-30T09:57:24.816Z,415
2017-07-30T09:58:24.495Z,320
2017-07-30T09:59:24.834Z,355
2017-07-30T10:00:24.816Z,300
2017-07-30T10:01:24.527Z,395
2017-07-30T10:02:24.532Z,395
2017-07-30T10:03:24.478Z,495
2017-07-30T10:04:24.458Z,320
2017-07-30T10:05:24.159Z,315
2017-07-30T10:06:24.769Z,260
2017-07-30T10:07:24.761Z,675
2017-07-30T10:08:24.448Z,185
2017-07-30T10:09:24.756Z,160
2017-07-30T10:10:24.737Z,155
2017-07-30T10:11:24.443Z,185
2017-07-30T10:12:24.143Z,165
2017-07-30T10:13:24.742Z,170
2017-07-30T10:14:24.109Z,160
2017-07-30T10:15:24.082Z,185
2017-07-30T10:16:24.406Z,185
2017-07-30T10:17:24.383Z,130
2017-07-30T10:18:24.699Z,110
2017-07-30T10:19:24.361Z,105
2017-07-30T10:20:24.079Z,110
2017-07-30T10:21:24.344Z,180
2017-07-30T10:22:24.052Z,255
2017-07-30T10:23:24.657Z,145
2017-07-30T10:24:24.353Z,135
2017-07-30T10:25:24.422Z,240
2017-07-30T10:26:24.313Z,245
2017-07-30T10:27:24.308Z,290
2017-07-30T10:28:24.051Z,265
2017-07-30T10:29:24.350Z,280
2017-07-30T10:30:24.579Z,275
2017-07-30T10:31:24.276Z,280
2017-07-30T10:32:24.283Z,295
2017-07-30T10:33:24.283Z,305
2017-07-30T10:34:24.274Z,310
2017-07-30T10:35:24.238Z,310
2017-07-30T10:36:24.249Z,270
2017-07-30T10:37:24.232Z,265
2017-07-30T10:38:24.545Z,260
2017-07-30T10:39:24.511Z,245
2017-07-30T10:40:24.219Z,275
2017-07-30T10:41:24.500Z,265
2017-07-30T10:42:24.204Z,255
2017-07-30T10:43:24.481Z,260
2017-07-30T10:44:24.250Z,280
2017-07-30T10:45:24.169Z,285
2017-07-30T10:46:24.194Z,280
2017-07-30T10:47:24.222Z,280
2017-07-30T10:48:24.421Z,265
2017-07-30T10:49:23.840Z,255
2017-07-30T10:50:24.133Z,240
2017-07-30T10:51:23.801Z,210
2017-07-30T10:52:24.224Z,180
2017-07-30T10:53:24.099Z,170
2017-07-30T10:54:23.779Z,180
2017-07-30T10:55:24.073Z,170
2017-07-30T10:56:24.072Z,160
2017-07-30T10:57:24.060Z,165
2017-07-30T10:58:24.201Z,175
2017-07-30T10:59:24.350Z,220
2017-07-30T11:00:23.759Z,265
2017-07-30T11:01:24.038Z,315
2017-07-30T11:02:24.072Z,300
2017-07-30T11:03:24.137Z,310
2017-07-30T11:04:24.016Z,315
2017-07-30T11:05:24.012Z,305
2017-07-30T11:06:24.384Z,290
2017-07-30T11:07:24.294Z,255
2017-07-30T11:08:23.983Z,240
2017-07-30T11:09:24.310Z,225
2017-07-30T11:10:24.000Z,235
2017-07-30T11:11:23.970Z,230
2017-07-30T11:12:24.266Z,245
2017-07-30T11:13:23.959Z,285
2017-07-30T11:14:23.931Z,280
2017-07-30T11:15:24.226Z,265
2017-07-30T11:16:23.681Z,250
2017-07-30T11:17:23.903Z,260
2017-07-30T11:18:24.219Z,265
2017-07-30T11:19:23.654Z,260
2017-07-30T11:20:23.909Z,255
2017-07-30T11:21:23.573Z,250
2017-07-30T11:22:23.895Z,240
2017-07-30T11:23:24.184Z,235
2017-07-30T11:24:23.869Z,230
2017-07-30T11:25:23.841Z,230
2017-07-30T11:26:24.163Z,260
2017-07-30T11:27:24.163Z,255
2017-07-30T11:28:24.115Z,250
2017-07-30T11:29:24.153Z,230
2017-07-30T11:30:24.112Z,230
2017-07-30T11:31:23.803Z,255
2017-07-30T11:32:24.091Z,270
2017-07-30T11:33:24.088Z,255
2017-07-30T11:34:24.087Z,255
2017-07-30T11:35:24.051Z,260
2017-07-30T11:36:24.062Z,280
2017-07-30T11:37:23.760Z,280
2017-07-30T11:38:24.039Z,260
2017-07-30T11:39:24.032Z,270
2017-07-30T11:40:24.053Z,255
2017-07-30T11:41:24.095Z,275
2017-07-30T11:42:24.138Z,275
2017-07-30T11:43:23.687Z,285
2017-07-30T11:44:24.091Z,280
2017-07-30T11:45:23.731Z,280
2017-07-30T11:46:24.012Z,275
2017-07-30T11:47:23.353Z,265
2017-07-30T11:48:23.350Z,270
2017-07-30T11:49:23.999Z,275
2017-07-30T11:50:23.981Z,280
2017-07-30T11:51:23.639Z,275
2017-07-30T11:52:24.029Z,270
2017-07-30T11:53:23.320Z,265
2017-07-30T11:54:23.601Z,270
2017-07-30T11:55:23.601Z,270
2017-07-30T11:56:23.613Z,265
2017-07-30T11:57:23.644Z,155
2017-07-30T11:58:22.989Z,260
2017-07-30T11:59:23.913Z,255
2017-07-30T12:00:23.566Z,270
2017-07-30T12:01:23.577Z,275
2017-07-30T12:02:23.866Z,265
2017-07-30T12:03:23.928Z,265
2017-07-30T12:04:23.833Z,265
2017-07-30T12:05:23.852Z,265
2017-07-30T12:06:23.279Z,255
2017-07-30T12:07:23.500Z,265
2017-07-30T12:08:23.548Z,260
2017-07-30T12:09:23.487Z,255
2017-07-30T12:10:22.882Z,250
2017-07-30T12:11:23.801Z,245
2017-07-30T12:12:23.533Z,240
2017-07-30T12:13:23.161Z,225
2017-07-30T12:14:23.475Z,215
2017-07-30T12:15:23.149Z,205
2017-07-30T12:16:23.450Z,205
2017-07-30T12:17:23.756Z,200
2017-07-30T12:18:23.137Z,200
2017-07-30T12:19:23.512Z,205
2017-07-30T12:20:23.104Z,200
2017-07-30T12:21:23.391Z,195
2017-07-30T12:22:23.721Z,190
2017-07-30T12:23:23.442Z,195
2017-07-30T12:24:23.401Z,210
2017-07-30T12:25:23.411Z,210
2017-07-30T12:26:23.711Z,215
2017-07-30T12:27:23.711Z,225
2017-07-30T12:28:23.362Z,225
2017-07-30T12:29:23.380Z,235
2017-07-30T12:30:23.668Z,240
2017-07-30T12:31:23.055Z,240
2017-07-30T12:32:23.630Z,245
2017-07-30T12:33:23.667Z,245
2017-07-30T12:34:23.661Z,250
2017-07-30T12:35:23.621Z,265
2017-07-30T12:36:23.730Z,260
2017-07-30T12:37:23.609Z,250
2017-07-30T12:38:23.586Z,240
2017-07-30T12:39:23.601Z,225
2017-07-30T12:40:23.568Z,220
2017-07-30T12:41:23.561Z,225
2017-07-30T12:42:23.561Z,235
2017-07-30T12:43:23.209Z,240
2017-07-30T12:44:23.247Z,240
2017-07-30T12:45:23.209Z,245
2017-07-30T12:46:23.512Z,240
2017-07-30T12:47:23.518Z,260
2017-07-30T12:48:23.521Z,255
2017-07-30T12:49:23.178Z,250
2017-07-30T12:50:23.333Z,255
2017-07-30T12:51:23.447Z,260
2017-07-30T12:52:23.481Z,250
2017-07-30T12:53:23.440Z,250
2017-07-30T12:54:23.152Z,255
2017-07-30T12:55:22.827Z,255
2017-07-30T12:56:23.429Z,245
2017-07-30T12:57:22.813Z,250
2017-07-30T12:58:23.141Z,220
2017-07-30T12:59:23.099Z,235
2017-07-30T13:00:23.121Z,230
2017-07-30T13:01:23.081Z,225
2017-07-30T13:02:23.060Z,215
2017-07-30T13:03:23.379Z,210
2017-07-30T13:04:23.060Z,215
2017-07-30T13:05:23.354Z,225
2017-07-30T13:06:23.049Z,225
2017-07-30T13:07:23.041Z,215
2017-07-30T13:08:22.755Z,185
2017-07-30T13:09:23.086Z,235
2017-07-30T13:10:23.330Z,240
2017-07-30T13:11:23.060Z,240
2017-07-30T13:12:23.312Z,235
2017-07-30T13:13:23.010Z,225
2017-07-30T13:14:22.672Z,235
2017-07-30T13:15:23.288Z,220
2017-07-30T13:16:23.346Z,240
2017-07-30T13:17:23.278Z,200
2017-07-30T13:18:23.317Z,200
2017-07-30T13:19:22.961Z,245
2017-07-30T13:20:22.657Z,255
2017-07-30T13:21:22.943Z,255
2017-07-30T13:22:23.226Z,255
2017-07-30T13:23:22.293Z,250
2017-07-30T13:24:22.909Z,245
2017-07-30T13:25:22.890Z,255
2017-07-30T13:26:23.214Z,250
2017-07-30T13:27:23.226Z,260
2017-07-30T13:28:22.560Z,250
2017-07-30T13:29:23.158Z,245
2017-07-30T13:30:23.154Z,245
2017-07-30T13:31:22.552Z,240
2017-07-30T13:32:22.854Z,210
2017-07-30T13:33:23.160Z,205
2017-07-30T13:34:22.971Z,230
2017-07-30T13:35:23.149Z,235
2017-07-30T13:36:22.520Z,225
2017-07-30T13:37:23.097Z,230
2017-07-30T13:38:23.116Z,215
2017-07-30T13:39:23.093Z,235
2017-07-30T13:40:22.793Z,230
2017-07-30T13:41:23.100Z,245
2017-07-30T13:42:22.761Z,240
2017-07-30T13:43:23.070Z,220
2017-07-30T13:44:22.762Z,205
2017-07-30T13:45:22.741Z,220
2017-07-30T13:46:22.749Z,240
2017-07-30T13:47:23.034Z,140
2017-07-30T13:48:23.050Z,145
2017-07-30T13:49:22.721Z,140
2017-07-30T13:50:23.005Z,130
2017-07-30T13:51:22.525Z,135
2017-07-30T13:52:22.398Z,140
2017-07-30T13:53:22.780Z,140
2017-07-30T13:54:22.675Z,140
2017-07-30T13:55:22.389Z,135
2017-07-30T13:56:23.001Z,130
2017-07-30T13:57:23.039Z,140
2017-07-30T13:58:22.971Z,160
2017-07-30T13:59:22.328Z,185
2017-07-30T14:00:23.043Z,150
2017-07-30T14:01:22.945Z,155
2017-07-30T14:02:22.974Z,165
2017-07-30T14:03:22.626Z,155
2017-07-30T14:04:22.292Z,150
2017-07-30T14:05:22.591Z,145
2017-07-30T14:06:22.581Z,145
2017-07-30T14:07:22.562Z,140
2017-07-30T14:08:22.942Z,140